Diesel — DIESEL — position and weather

sailwx.info

Track history (hours):
 
Tides and Currents Weather Stations Pressure Air Temp Water Temp Dewpoint Dewpoint Depression Visibility Wind Speed Wind Dir Waves Ship Positions

Diesel

Last reported at 2018-Jun-24 23:58 UTC. Time now 2018-Jun-25 00:25 UTC.
Position N 43°33' W 079°35'.

Length 14 m; draft 1.2 m.

Type: Pleasure craft. MMSI: 316025548.

Date/timePositionNaut miles runAvg speedWind from/ knotsBaromVisibWave heightAir tempDewpointWater temp
2018-Jun-24 23:58N 43°33' W 079°35'0 0.0
2018-Jun-24 23:28N 43°33' W 079°35'0 0.0
2018-Jun-24 23:00N 43°33' W 079°35'0 0.1
2018-Jun-24 22:28N 43°33' W 079°35'0 0.0
2018-Jun-24 22:00N 43°33' W 079°35'0 0.0
2018-Jun-24 21:29N 43°33' W 079°35'0 0.0
2018-Jun-24 20:59N 43°33' W 079°35'0 0.1
2018-Jun-24 20:30N 43°33' W 079°35'0 0.1
2018-Jun-24 19:59N 43°33' W 079°35'0 0.5
2018-Jun-24 19:30N 43°33' W 079°34'0 0.5
2018-Jun-24 18:59N 43°33' W 079°35'0 0.0
2018-Jun-24 18:30N 43°33' W 079°35'0 0.0
2018-Jun-24 17:59N 43°33' W 079°35'0 0.0
2018-Jun-24 17:30N 43°33' W 079°35'0 0.0
2018-Jun-24 17:00N 43°33' W 079°35'0 0.0
2018-Jun-24 16:29N 43°33' W 079°35'0 0.0
2018-Jun-24 16:00N 43°33' W 079°35'0 0.0
2018-Jun-24 15:30N 43°33' W 079°35'0 0.0
2018-Jun-24 14:55N 43°33' W 079°35'0 0.0
2018-Jun-24 14:29N 43°33' W 079°35'0 0.0
2018-Jun-24 14:00N 43°33' W 079°35'0 0.0
2018-Jun-24 13:28N 43°33' W 079°35'0 0.0
2018-Jun-24 13:00N 43°33' W 079°35'0 0.0
2018-Jun-24 12:27N 43°33' W 079°35'0 0.1
2018-Jun-24 11:59N 43°33' W 079°35'0 0.0
2018-Jun-24 11:29N 43°33' W 079°35'0 0.0
2018-Jun-24 10:58N 43°33' W 079°35'0 0.0
2018-Jun-24 10:30N 43°33' W 079°35'0 0.0
2018-Jun-24 10:00N 43°33' W 079°35'0 0.0
2018-Jun-24 09:30N 43°33' W 079°35'0 0.0
2018-Jun-24 08:59N 43°33' W 079°35'0 0.0
2018-Jun-24 08:30N 43°33' W 079°35'0 0.0
2018-Jun-24 07:58N 43°33' W 079°35'0 0.0
2018-Jun-24 07:29N 43°33' W 079°35'0 0.0
2018-Jun-24 06:58N 43°33' W 079°35'0 0.0
2018-Jun-24 06:30N 43°33' W 079°35'0 0.0
2018-Jun-24 05:59N 43°33' W 079°35'0 0.0
2018-Jun-24 05:29N 43°33' W 079°35'0 0.0
2018-Jun-24 05:00N 43°33' W 079°35'0 0.0
2018-Jun-24 04:30N 43°33' W 079°35'0 0.0
2018-Jun-24 03:57N 43°33' W 079°35'0 0.0
2018-Jun-24 03:25N 43°33' W 079°35'0 0.0
2018-Jun-24 03:00N 43°33' W 079°35'0 0.0
2018-Jun-24 02:29N 43°33' W 079°35'0 0.0
2018-Jun-24 01:59N 43°33' W 079°35'0 0.0
2018-Jun-24 01:27N 43°33' W 079°35'0 0.0
2018-Jun-24 01:00N 43°33' W 079°35'0 0.0
2018-Jun-24 00:30N 43°33' W 079°35'0 0.0
2018-Jun-24 00:00N 43°33' W 079°35'0 0.0
2018-Jun-23 23:30N 43°33' W 079°35'0 0.0
2018-Jun-23 22:59N 43°33' W 079°35'0 0.0
2018-Jun-23 22:29N 43°33' W 079°35'0 0.0
2018-Jun-23 22:00N 43°33' W 079°35'0 0.0
2018-Jun-23 21:28N 43°33' W 079°35'0 0.1
2018-Jun-23 21:00N 43°33' W 079°35'2 3.7
2018-Jun-23 20:30N 43°33' W 079°32'4 8.5
2018-Jun-23 20:00N 43°35' W 079°27'4 8.5
2018-Jun-23 19:30N 43°36' W 079°21'4 8.7
2018-Jun-23 19:00N 43°39' W 079°17'4 8.6
2018-Jun-23 18:30N 43°42' W 079°13'4 7.8
2018-Jun-23 18:00N 43°45' W 079°09'4 7.7
2018-Jun-23 17:30N 43°47' W 079°04'4 9.0
2018-Jun-23 17:00N 43°49' W 078°58'5 9.0
2018-Jun-23 16:30N 43°50' W 078°52'4 8.2
2018-Jun-23 16:00N 43°51' W 078°47'4 8.0
2018-Jun-23 15:30N 43°51' W 078°41'1 3.0
2018-Jun-23 15:00N 43°53' W 078°40'1 1.3
2018-Jun-23 14:27N 43°53' W 078°40'0 0.0
2018-Jun-23 13:59N 43°53' W 078°40'0 0.0
2018-Jun-23 13:28N 43°53' W 078°40'0 0.0
2018-Jun-23 12:58N 43°53' W 078°40'0 0.0
2018-Jun-23 12:27N 43°53' W 078°40'0 0.1
2018-Jun-23 12:00N 43°53' W 078°40'0 0.0
2018-Jun-23 11:28N 43°53' W 078°40'0 0.0
2018-Jun-23 11:00N 43°53' W 078°40'0 0.0
2018-Jun-23 10:28N 43°53' W 078°40'0 0.0
2018-Jun-23 10:00N 43°53' W 078°40'0 0.0
2018-Jun-23 09:29N 43°53' W 078°40'0 0.0
2018-Jun-23 08:58N 43°53' W 078°40'0 0.1
2018-Jun-23 08:28N 43°53' W 078°40'0 0.1
2018-Jun-23 08:00N 43°53' W 078°40'0 0.1
2018-Jun-23 07:29N 43°53' W 078°40'0 0.1
2018-Jun-23 06:58N 43°53' W 078°40'0 0.1
2018-Jun-23 06:30N 43°53' W 078°40'0 0.0
2018-Jun-23 06:00N 43°53' W 078°40'0 0.0
2018-Jun-23 05:29N 43°53' W 078°40'0 0.0
2018-Jun-23 04:58N 43°53' W 078°40'0 0.0
2018-Jun-23 04:29N 43°53' W 078°40'0 0.0
2018-Jun-23 03:58N 43°53' W 078°40'0 0.0
2018-Jun-23 03:29N 43°53' W 078°40'0 0.0
2018-Jun-23 02:58N 43°53' W 078°40'0 0.0
2018-Jun-23 02:29N 43°53' W 078°40'0 0.0
2018-Jun-23 01:58N 43°53' W 078°40'0 0.0
2018-Jun-23 01:28N 43°53' W 078°40'0 0.0
2018-Jun-23 00:58N 43°53' W 078°40'0 0.0
2018-Jun-23 00:28N 43°53' W 078°40'0 0.0
2018-Jun-23 00:00N 43°53' W 078°40'0 0.0
2018-Jun-22 23:30N 43°53' W 078°40'0 0.0
2018-Jun-22 22:58N 43°53' W 078°40'0 0.0
2018-Jun-22 22:29N 43°53' W 078°40'0 0.0
2018-Jun-22 22:00N 43°53' W 078°40'0 0.0
2018-Jun-22 21:30N 43°53' W 078°40'0 0.0
2018-Jun-22 21:00N 43°53' W 078°40'0 0.0
2018-Jun-22 20:26N 43°53' W 078°40'0 0.0
2018-Jun-22 19:58N 43°53' W 078°40'0 0.0
2018-Jun-22 19:29N 43°53' W 078°40'0 0.0
2018-Jun-22 18:59N 43°53' W 078°40'0 0.0
2018-Jun-22 18:30N 43°53' W 078°40'0 0.0
2018-Jun-22 17:59N 43°53' W 078°40'0 0.0
2018-Jun-22 17:30N 43°53' W 078°40'0 0.0
2018-Jun-22 17:00N 43°53' W 078°40'0 0.0
2018-Jun-22 16:29N 43°53' W 078°40'0 0.0
2018-Jun-22 15:59N 43°53' W 078°40'0 0.0
2018-Jun-22 15:28N 43°53' W 078°40'0 0.0
2018-Jun-22 14:57N 43°53' W 078°40'0 0.0
2018-Jun-22 14:28N 43°53' W 078°40'0 0.0
2018-Jun-22 13:59N 43°53' W 078°40'0 0.0
2018-Jun-22 13:29N 43°53' W 078°40'0 0.0
2018-Jun-22 13:00N 43°53' W 078°40'0 0.0
2018-Jun-22 12:29N 43°53' W 078°40'0 0.0
2018-Jun-22 11:58N 43°53' W 078°40'0 0.0
2018-Jun-22 11:27N 43°53' W 078°40'0 0.0
2018-Jun-22 11:00N 43°53' W 078°40'0 0.0
2018-Jun-22 10:28N 43°53' W 078°40'0 0.0
2018-Jun-22 10:00N 43°53' W 078°40'0 0.0
2018-Jun-22 09:29N 43°53' W 078°40'0 0.0
2018-Jun-22 09:00N 43°53' W 078°40'0 0.0
2018-Jun-22 08:30N 43°53' W 078°40'0 0.0
2018-Jun-22 07:59N 43°53' W 078°40'0 0.0
2018-Jun-22 07:30N 43°53' W 078°40'0 0.0
2018-Jun-22 06:58N 43°53' W 078°40'0 0.0
2018-Jun-22 06:28N 43°53' W 078°40'0 0.0
2018-Jun-22 06:00N 43°53' W 078°40'0 0.0
2018-Jun-22 05:30N 43°53' W 078°40'0 0.0
2018-Jun-22 04:57N 43°53' W 078°40'0 0.0
2018-Jun-22 04:27N 43°53' W 078°40'0 0.0
2018-Jun-22 03:58N 43°53' W 078°40'0 0.0
2018-Jun-22 03:30N 43°53' W 078°40'0 0.0
2018-Jun-22 02:58N 43°53' W 078°40'0 0.0
2018-Jun-22 02:29N 43°53' W 078°40'0 0.0
2018-Jun-22 01:58N 43°53' W 078°40'0 0.0
2018-Jun-22 01:28N 43°53' W 078°40'0 0.0
2018-Jun-22 00:59N 43°53' W 078°40'0 0.0
2018-Jun-22 00:30N 43°53' W 078°40'0 0.1
2018-Jun-21 23:58N 43°53' W 078°40'0 0.1
2018-Jun-21 23:30N 43°53' W 078°40'0 0.0
2018-Jun-21 22:58N 43°53' W 078°40'0 0.0
2018-Jun-21 22:29N 43°53' W 078°40'0 0.0
2018-Jun-21 21:58N 43°53' W 078°40'0 0.0
2018-Jun-21 21:30N 43°53' W 078°40'0 0.0
2018-Jun-21 20:58N 43°53' W 078°40'0 0.0
2018-Jun-21 20:28N 43°53' W 078°40'0 0.0
2018-Jun-21 19:59N 43°53' W 078°40'0 0.0
2018-Jun-21 19:30N 43°53' W 078°40'0 0.0
2018-Jun-21 18:58N 43°53' W 078°40'0 0.0
2018-Jun-21 18:29N 43°53' W 078°40'0 0.0
2018-Jun-21 17:58N 43°53' W 078°40'0 0.0
2018-Jun-21 17:29N 43°53' W 078°40'0 0.0
2018-Jun-21 17:00N 43°53' W 078°40'0 0.0
2018-Jun-21 16:28N 43°53' W 078°40'0 0.0
2018-Jun-21 15:59N 43°53' W 078°40'0 0.0
2018-Jun-21 15:31N 43°53' W 078°40'0 0.0
2018-Jun-21 14:59N 43°53' W 078°40'0 0.0
2018-Jun-21 14:29N 43°53' W 078°40'0 0.0
2018-Jun-21 14:00N 43°53' W 078°40'0 0.0
2018-Jun-21 13:28N 43°53' W 078°40'0 0.0
2018-Jun-21 12:59N 43°53' W 078°40'0 0.0
2018-Jun-21 12:29N 43°53' W 078°40'0 0.0
2018-Jun-21 12:00N 43°53' W 078°40'0 0.0
2018-Jun-21 11:28N 43°53' W 078°40'0 0.0
2018-Jun-21 10:59N 43°53' W 078°40'0 0.0
2018-Jun-21 10:30N 43°53' W 078°40'0 0.0
2018-Jun-21 10:00N 43°53' W 078°40'0 0.0
2018-Jun-21 09:29N 43°53' W 078°40'0 0.0
2018-Jun-21 09:01N 43°53' W 078°40'0 0.0
2018-Jun-21 08:30N 43°53' W 078°40'0 0.0
2018-Jun-21 07:58N 43°53' W 078°40'0 0.0
2018-Jun-21 07:28N 43°53' W 078°40'0 0.0
2018-Jun-21 06:57N 43°53' W 078°40'0 0.0
2018-Jun-21 06:27N 43°53' W 078°40'0 0.0
2018-Jun-21 05:57N 43°53' W 078°40'0 0.0
2018-Jun-21 05:29N 43°53' W 078°40'0 0.0
2018-Jun-21 04:57N 43°53' W 078°40'0 0.0
2018-Jun-21 04:30N 43°53' W 078°40'0 0.0
2018-Jun-21 03:58N 43°53' W 078°40'0 0.0
2018-Jun-21 03:28N 43°53' W 078°40'0 0.0
2018-Jun-21 02:58N 43°53' W 078°40'0 0.0
2018-Jun-21 02:28N 43°53' W 078°40'0 0.0
2018-Jun-21 01:58N 43°53' W 078°40'0 0.0
2018-Jun-21 01:28N 43°53' W 078°40'0 0.0
2018-Jun-21 00:57N 43°53' W 078°40'0 0.0
2018-Jun-21 00:30N 43°53' W 078°40'0 0.0
2018-Jun-20 23:59N 43°53' W 078°40'0 0.0
2018-Jun-20 23:30N 43°53' W 078°40'0 0.0
2018-Jun-20 22:58N 43°53' W 078°40'0 0.0
2018-Jun-20 22:30N 43°53' W 078°40'0 0.0
2018-Jun-20 21:59N 43°53' W 078°40'0 0.0
2018-Jun-20 21:30N 43°53' W 078°40'0 0.0
2018-Jun-20 20:59N 43°53' W 078°40'0 0.0
2018-Jun-20 20:29N 43°53' W 078°40'0 0.0
2018-Jun-20 19:58N 43°53' W 078°40'0 0.0
2018-Jun-20 19:29N 43°53' W 078°40'0 0.0
2018-Jun-20 18:58N 43°53' W 078°40'0 0.0
2018-Jun-20 18:29N 43°53' W 078°40'0 0.0
2018-Jun-20 17:58N 43°53' W 078°40'0 0.0
2018-Jun-20 17:27N 43°53' W 078°40'0 0.0
2018-Jun-20 16:58N 43°53' W 078°40'0 0.0
2018-Jun-20 16:29N 43°53' W 078°40'0 0.0
2018-Jun-20 15:57N 43°53' W 078°40'0 0.0
2018-Jun-20 15:29N 43°53' W 078°40'0 0.0
2018-Jun-20 15:00N 43°53' W 078°40'0 0.0
2018-Jun-20 14:30N 43°53' W 078°40'0 0.0
2018-Jun-20 14:00N 43°53' W 078°40'0 0.0
2018-Jun-20 13:30N 43°53' W 078°40'0 0.0
2018-Jun-20 13:00N 43°53' W 078°40'0 0.0
2018-Jun-20 12:26N 43°53' W 078°40'0 0.0
2018-Jun-20 12:00N 43°53' W 078°40'0 0.0
2018-Jun-20 11:28N 43°53' W 078°40'0 0.0
2018-Jun-20 10:58N 43°53' W 078°40'0 0.0
2018-Jun-20 10:30N 43°53' W 078°40'0 0.0
2018-Jun-20 09:58N 43°53' W 078°40'0 0.0
2018-Jun-20 09:29N 43°53' W 078°40'0 0.0
2018-Jun-20 09:00N 43°53' W 078°40'0 0.0
2018-Jun-20 08:30N 43°53' W 078°40'0 0.0
2018-Jun-20 07:57N 43°53' W 078°40'0 0.0
2018-Jun-20 07:28N 43°53' W 078°40'0 0.0
2018-Jun-20 07:00N 43°53' W 078°40'0 0.0
2018-Jun-20 06:30N 43°53' W 078°40'0 0.0
2018-Jun-20 06:01N 43°53' W 078°40'0 0.0
2018-Jun-20 05:28N 43°53' W 078°40'0 0.0
2018-Jun-20 04:59N 43°53' W 078°40'0 0.0
2018-Jun-20 04:30N 43°53' W 078°40'0 0.0
2018-Jun-20 03:58N 43°53' W 078°40'0 0.0
2018-Jun-20 03:30N 43°53' W 078°40'0 0.0
2018-Jun-20 02:58N 43°53' W 078°40'0 0.0
2018-Jun-20 02:28N 43°53' W 078°40'0 0.0
2018-Jun-20 01:59N 43°53' W 078°40'0 0.0
2018-Jun-20 01:28N 43°53' W 078°40'0 0.0
2018-Jun-20 00:59N 43°53' W 078°40'0 0.0
2018-Jun-20 00:30N 43°53' W 078°40'0 0.0
2018-Jun-19 23:57N 43°53' W 078°40'0 0.0
2018-Jun-19 23:29N 43°53' W 078°40'0 0.0
2018-Jun-19 22:58N 43°53' W 078°40'0 0.0
2018-Jun-19 22:28N 43°53' W 078°40'0 0.0
2018-Jun-19 21:58N 43°53' W 078°40'0 0.0
2018-Jun-19 21:30N 43°53' W 078°40'0 0.0
2018-Jun-19 21:00N 43°53' W 078°40'0 0.0
2018-Jun-19 20:30N 43°53' W 078°40'0 0.0
2018-Jun-19 19:58N 43°53' W 078°40'0 0.0
2018-Jun-19 19:29N 43°53' W 078°40'0 0.0
2018-Jun-19 19:00N 43°53' W 078°40'0 0.0
2018-Jun-19 18:27N 43°53' W 078°40'0 0.0
2018-Jun-19 17:59N 43°53' W 078°40'0 0.0
2018-Jun-19 17:28N 43°53' W 078°40'0 0.0
2018-Jun-19 16:58N 43°53' W 078°40'0 0.0
2018-Jun-19 16:30N 43°53' W 078°40'0 0.0
2018-Jun-19 15:58N 43°53' W 078°40'0 0.0
2018-Jun-19 15:30N 43°53' W 078°40'0 0.0
2018-Jun-19 14:57N 43°53' W 078°40'0 0.0
2018-Jun-19 14:28N 43°53' W 078°40'0 0.0
2018-Jun-19 13:59N 43°53' W 078°40'0 0.0
2018-Jun-19 13:30N 43°53' W 078°40'0 0.0
2018-Jun-19 13:00N 43°53' W 078°40'0 0.0
2018-Jun-19 12:29N 43°53' W 078°40'0 0.0
2018-Jun-19 11:59N 43°53' W 078°40'0 0.0
2018-Jun-19 11:27N 43°53' W 078°40'0 0.0
2018-Jun-19 10:58N 43°53' W 078°40'0 0.0
2018-Jun-19 10:29N 43°53' W 078°40'0 0.0
2018-Jun-19 09:59N 43°53' W 078°40'0 0.0
2018-Jun-19 09:28N 43°53' W 078°40'0 0.0
2018-Jun-19 09:00N 43°53' W 078°40'0 0.0
2018-Jun-19 08:30N 43°53' W 078°40'0 0.0
2018-Jun-19 07:58N 43°53' W 078°40'0 0.0
2018-Jun-19 07:27N 43°53' W 078°40'0 0.0
2018-Jun-19 07:00N 43°53' W 078°40'0 0.0
2018-Jun-19 06:29N 43°53' W 078°40'0 0.0
2018-Jun-19 05:59N 43°53' W 078°40'0 0.0
2018-Jun-19 05:29N 43°53' W 078°40'0 0.0
2018-Jun-19 05:00N 43°53' W 078°40'0 0.0
2018-Jun-19 04:30N 43°53' W 078°40'0 0.0
2018-Jun-19 03:59N 43°53' W 078°40'0 0.0
2018-Jun-19 03:27N 43°53' W 078°40'0 0.0
2018-Jun-19 02:58N 43°53' W 078°40'0 0.0
2018-Jun-19 02:28N 43°53' W 078°40'0 0.0
2018-Jun-19 01:59N 43°53' W 078°40'0 0.0
2018-Jun-19 01:30N 43°53' W 078°40'0 0.0
2018-Jun-19 00:59N 43°53' W 078°40'0 0.0
2018-Jun-19 00:29N 43°53' W 078°40'0 0.0
2018-Jun-19 00:00N 43°53' W 078°40'0 0.0
2018-Jun-18 23:27N 43°53' W 078°40'0 0.0
2018-Jun-18 22:58N 43°53' W 078°40'0 0.0
2018-Jun-18 22:30N 43°53' W 078°40'0 0.0
2018-Jun-18 21:59N 43°53' W 078°40'0 0.0
2018-Jun-18 21:28N 43°53' W 078°40'0 0.0
2018-Jun-18 21:00N 43°53' W 078°40'0 0.0
2018-Jun-18 20:30N 43°53' W 078°40'0 0.0
2018-Jun-18 20:00N 43°53' W 078°40'0 0.0
2018-Jun-18 19:29N 43°53' W 078°40'0 0.0
2018-Jun-18 18:57N 43°53' W 078°40'0 0.0
2018-Jun-18 18:30N 43°53' W 078°40'0 0.0
2018-Jun-18 17:59N 43°53' W 078°40'0 0.0
2018-Jun-18 17:28N 43°53' W 078°40'0 0.0
2018-Jun-18 16:58N 43°53' W 078°40'0 0.0
2018-Jun-18 16:29N 43°53' W 078°40'0 0.0
2018-Jun-18 15:59N 43°53' W 078°40'0 0.0
2018-Jun-18 15:29N 43°53' W 078°40'0 0.0
2018-Jun-18 15:00N 43°53' W 078°40'0 0.0
2018-Jun-18 14:30N 43°53' W 078°40'0 0.0
2018-Jun-18 14:00N 43°53' W 078°40'0 0.0
2018-Jun-18 13:26N 43°53' W 078°40'0 0.0
2018-Jun-18 12:58N 43°53' W 078°40'0 0.0
2018-Jun-18 12:28N 43°53' W 078°40'0 0.0
2018-Jun-18 12:00N 43°53' W 078°40'0 0.0
2018-Jun-18 11:24N 43°53' W 078°40'0 0.0
2018-Jun-18 11:00N 43°53' W 078°40'0 0.0
2018-Jun-18 10:28N 43°53' W 078°40'0 0.0
2018-Jun-18 09:58N 43°53' W 078°40'0 0.0
2018-Jun-18 09:29N 43°53' W 078°40'0 0.0
2018-Jun-18 09:00N 43°53' W 078°40'0 0.0
2018-Jun-18 08:30N 43°53' W 078°40'0 0.0
2018-Jun-18 08:00N 43°53' W 078°40'0 0.0
2018-Jun-18 07:30N 43°53' W 078°40'0 0.0
2018-Jun-18 06:58N 43°53' W 078°40'0 0.0
2018-Jun-18 06:28N 43°53' W 078°40'0 0.0
2018-Jun-18 05:59N 43°53' W 078°40'0 0.0
2018-Jun-18 05:28N 43°53' W 078°40'0 0.0
2018-Jun-18 04:58N 43°53' W 078°40'0 0.0
2018-Jun-18 04:30N 43°53' W 078°40'0 0.0
2018-Jun-18 03:58N 43°53' W 078°40'0 0.0
2018-Jun-18 03:28N 43°53' W 078°40'0 0.0
2018-Jun-18 03:00N 43°53' W 078°40'0 0.0
2018-Jun-18 02:29N 43°53' W 078°40'0 0.0
2018-Jun-18 01:58N 43°53' W 078°40'0 0.0
2018-Jun-18 01:29N 43°53' W 078°40'0 0.0
2018-Jun-18 00:58N 43°53' W 078°40'0 0.0
2018-Jun-18 00:30N 43°53' W 078°40'0 0.0
2018-Jun-17 23:58N 43°53' W 078°40'0 0.0
2018-Jun-17 23:30N 43°53' W 078°40'0 0.0
2018-Jun-17 22:58N 43°53' W 078°40'0 0.0
2018-Jun-17 22:29N 43°53' W 078°40'0 0.0
2018-Jun-17 21:59N 43°53' W 078°40'0 0.0
2018-Jun-17 21:30N 43°53' W 078°40'0 0.0
2018-Jun-17 20:58N 43°53' W 078°40'0 0.0
2018-Jun-17 20:28N 43°53' W 078°40'0 0.0
2018-Jun-17 19:59N 43°53' W 078°40'0 0.0
2018-Jun-17 19:30N 43°53' W 078°40'0 0.0
2018-Jun-17 18:58N 43°53' W 078°40'0 0.0
2018-Jun-17 18:28N 43°53' W 078°40'0 0.1
2018-Jun-17 17:58N 43°53' W 078°40'0 0.0
2018-Jun-17 17:29N 43°53' W 078°40'0 0.0
2018-Jun-17 16:58N 43°53' W 078°40'0 0.1
2018-Jun-17 16:28N 43°53' W 078°40'0 0.1
2018-Jun-17 15:59N 43°53' W 078°40'0 0.0
2018-Jun-17 15:28N 43°53' W 078°40'0 0.0
2018-Jun-17 14:58N 43°53' W 078°40'0 0.0
2018-Jun-17 14:28N 43°53' W 078°40'0 0.0
2018-Jun-17 14:00N 43°53' W 078°40'0 0.0
2018-Jun-17 13:30N 43°53' W 078°40'0 0.0
2018-Jun-17 12:58N 43°53' W 078°40'0 0.0
2018-Jun-17 12:29N 43°53' W 078°40'0 0.0
2018-Jun-17 11:59N 43°53' W 078°40'0 0.0
2018-Jun-17 11:30N 43°53' W 078°40'0 0.0
2018-Jun-17 11:00N 43°53' W 078°40'0 0.0
2018-Jun-17 10:27N 43°53' W 078°40'0 0.0
2018-Jun-17 09:59N 43°53' W 078°40'0 0.0
2018-Jun-17 09:30N 43°53' W 078°40'0 0.0
2018-Jun-17 08:58N 43°53' W 078°40'0 0.0
2018-Jun-17 08:29N 43°53' W 078°40'0 0.0
2018-Jun-17 08:00N 43°53' W 078°40'0 0.0
2018-Jun-17 07:26N 43°53' W 078°40'0 0.0
2018-Jun-17 06:57N 43°53' W 078°40'0 0.0
2018-Jun-17 06:30N 43°53' W 078°40'0 0.0
2018-Jun-17 05:58N 43°53' W 078°40'0 0.0
2018-Jun-17 05:28N 43°53' W 078°40'0 0.0
2018-Jun-17 04:58N 43°53' W 078°40'0 0.0
2018-Jun-17 04:30N 43°53' W 078°40'0 0.0
2018-Jun-17 03:59N 43°53' W 078°40'0 0.0
2018-Jun-17 03:28N 43°53' W 078°40'0 0.0
2018-Jun-17 03:00N 43°53' W 078°40'0 0.0
2018-Jun-17 02:30N 43°53' W 078°40'0 0.0
2018-Jun-17 01:59N 43°53' W 078°40'0 0.0
2018-Jun-17 01:28N 43°53' W 078°40'0 0.0
2018-Jun-17 00:58N 43°53' W 078°40'0 0.0
2018-Jun-17 00:30N 43°53' W 078°40'0 0.0
2018-Jun-17 00:00N 43°53' W 078°40'0 0.0
2018-Jun-16 23:30N 43°53' W 078°40'0 0.0
2018-Jun-16 22:59N 43°53' W 078°40'0 0.0
2018-Jun-16 22:30N 43°53' W 078°40'0 0.0
2018-Jun-16 21:58N 43°53' W 078°40'0 0.0
2018-Jun-16 21:31N 43°53' W 078°40'0 0.0
2018-Jun-16 20:59N 43°53' W 078°40'0 0.0
2018-Jun-16 20:29N 43°53' W 078°40'0 0.0
2018-Jun-16 20:00N 43°53' W 078°40'0 0.0
2018-Jun-16 19:30N 43°53' W 078°40'0 0.0
2018-Jun-16 19:00N 43°53' W 078°40'0 0.0
2018-Jun-16 18:30N 43°53' W 078°40'0 0.0
2018-Jun-16 17:58N 43°53' W 078°40'0 0.0
2018-Jun-16 17:30N 43°53' W 078°40'0 0.0
2018-Jun-16 16:58N 43°53' W 078°40'0 0.0
2018-Jun-16 16:28N 43°53' W 078°40'2 3.5
2018-Jun-16 16:00N 43°52' W 078°41'4 7.9
2018-Jun-16 15:30N 43°50' W 078°46'7 8.0
2018-Jun-16 14:35N 43°47' W 078°55'8 8.1
2018-Jun-16 13:34N 43°43' W 079°05'1 6.7
2018-Jun-16 13:29N 43°42' W 079°06'4 8.3
2018-Jun-16 13:00N 43°40' W 079°10'4 8.0
2018-Jun-16 12:30N 43°39' W 079°15'4 8.4
2018-Jun-16 12:00N 43°36' W 079°20'4 7.7
2018-Jun-16 11:30N 43°35' W 079°25'4 8.1
2018-Jun-16 11:00N 43°34' W 079°31'3 6.3
2018-Jun-16 10:30N 43°33' W 079°35'0 0.1
2018-Jun-16 09:59N 43°33' W 079°35'0 0.0
2018-Jun-16 09:30N 43°33' W 079°35'0 0.0
2018-Jun-16 08:59N 43°33' W 079°35'0 0.0
2018-Jun-16 08:28N 43°33' W 079°35'0 0.0
2018-Jun-16 07:59N 43°33' W 079°35'0 0.0
2018-Jun-16 07:30N 43°33' W 079°35'0 0.0
2018-Jun-16 06:59N 43°33' W 079°35'0 0.0
2018-Jun-16 06:29N 43°33' W 079°35'0 0.0
2018-Jun-16 05:58N 43°33' W 079°35'0 0.0
2018-Jun-16 05:29N 43°33' W 079°35'0 0.0
2018-Jun-16 04:59N 43°33' W 079°35'0 0.0
2018-Jun-16 04:29N 43°33' W 079°35'0 0.0
2018-Jun-16 04:00N 43°33' W 079°35'0 0.0
2018-Jun-16 03:30N 43°33' W 079°35'0 0.0
2018-Jun-16 02:57N 43°33' W 079°35'0 0.0
2018-Jun-16 02:30N 43°33' W 079°35'0 0.0
2018-Jun-16 02:00N 43°33' W 079°35'0 0.0
2018-Jun-16 01:30N 43°33' W 079°35'0 0.0
2018-Jun-16 01:00N 43°33' W 079°35'0 0.0
2018-Jun-16 00:28N 43°33' W 079°35'0 0.0
2018-Jun-15 23:59N 43°33' W 079°35'0 0.0
2018-Jun-15 23:30N 43°33' W 079°35'0 0.0
2018-Jun-15 22:59N 43°33' W 079°35'0 0.0
2018-Jun-15 22:28N 43°33' W 079°35'0 0.0
2018-Jun-15 22:00N 43°33' W 079°35'0 0.0
2018-Jun-15 21:30N 43°33' W 079°35'0 0.0
2018-Jun-15 20:59N 43°33' W 079°35'0 0.0
2018-Jun-15 20:30N 43°33' W 079°35'0 0.0
2018-Jun-15 20:00N 43°33' W 079°35'0 0.0
2018-Jun-15 19:30N 43°33' W 079°35'0 0.0
2018-Jun-15 19:00N 43°33' W 079°35'0 0.0
2018-Jun-15 18:30N 43°33' W 079°35'0 0.0
2018-Jun-15 17:59N 43°33' W 079°35'0 0.0
2018-Jun-15 17:29N 43°33' W 079°35'0 0.0
2018-Jun-15 17:00N 43°33' W 079°35'0 0.0
2018-Jun-15 16:29N 43°33' W 079°35'0 0.0
2018-Jun-15 16:00N 43°33' W 079°35'0 0.0
2018-Jun-15 15:29N 43°33' W 079°35'0 0.0
2018-Jun-15 15:00N 43°33' W 079°35'0 0.0
2018-Jun-15 14:29N 43°33' W 079°35'0 0.0
2018-Jun-15 13:58N 43°33' W 079°35'0 0.0
2018-Jun-15 13:28N 43°33' W 079°35'0 0.0
2018-Jun-15 13:00N 43°33' W 079°35'0 0.0
2018-Jun-15 12:27N 43°33' W 079°35'0 0.0
2018-Jun-15 11:57N 43°33' W 079°35'0 0.0
2018-Jun-15 11:30N 43°33' W 079°35'0 0.0
2018-Jun-15 10:59N 43°33' W 079°35'0 0.0
2018-Jun-15 10:29N 43°33' W 079°35'0 0.0
2018-Jun-15 09:59N 43°33' W 079°35'0 0.0
2018-Jun-15 09:29N 43°33' W 079°35'0 0.0
2018-Jun-15 09:00N 43°33' W 079°35'0 0.0
2018-Jun-15 08:31N 43°33' W 079°35'0 0.0
2018-Jun-15 07:58N 43°33' W 079°35'0 0.0
2018-Jun-15 07:29N 43°33' W 079°35'0 0.0
2018-Jun-15 06:59N 43°33' W 079°35'0 0.0
2018-Jun-15 06:24N 43°33' W 079°35'0 0.0
2018-Jun-15 05:59N 43°33' W 079°35'0 0.0
2018-Jun-15 05:29N 43°33' W 079°35'0 0.0
2018-Jun-15 04:57N 43°33' W 079°35'0 0.0
2018-Jun-15 04:30N 43°33' W 079°35'0 0.0
2018-Jun-15 04:00N 43°33' W 079°35'0 0.0
2018-Jun-15 03:30N 43°33' W 079°35'0 0.0
2018-Jun-15 02:59N 43°33' W 079°35'0 0.0
2018-Jun-15 02:28N 43°33' W 079°35'0 0.0
2018-Jun-15 01:59N 43°33' W 079°35'0 0.0
2018-Jun-15 01:28N 43°33' W 079°35'0 0.0
2018-Jun-15 01:00N 43°33' W 079°35'0 0.0
2018-Jun-15 00:30N 43°33' W 079°35'0 0.0
2018-Jun-14 23:59N 43°33' W 079°35'  
Track history (hours):
 
Tides and Currents Weather Stations Pressure Air Temp Water Temp Dewpoint Dewpoint Depression Visibility Wind Speed Wind Dir Waves Ship Positions

Diesel

Last reported at 2018-Jun-24 23:58 UTC. Time now 2018-Jun-25 00:25 UTC.
Position N 43°33' W 079°35'.

Length 14 m; draft 1.2 m.

Type: Pleasure craft. MMSI: 316025548.

Date/timePositionNaut miles runAvg speedWind from/ knotsBaromVisibWave heightAir tempDewpointWater temp
2018-Jun-24 23:58N 43°33' W 079°35'0 0.0
2018-Jun-24 23:28N 43°33' W 079°35'0 0.0
2018-Jun-24 23:00N 43°33' W 079°35'0 0.1
2018-Jun-24 22:28N 43°33' W 079°35'0 0.0
2018-Jun-24 22:00N 43°33' W 079°35'0 0.0
2018-Jun-24 21:29N 43°33' W 079°35'0 0.0
2018-Jun-24 20:59N 43°33' W 079°35'0 0.1
2018-Jun-24 20:30N 43°33' W 079°35'0 0.1
2018-Jun-24 19:59N 43°33' W 079°35'0 0.5
2018-Jun-24 19:30N 43°33' W 079°34'0 0.5
2018-Jun-24 18:59N 43°33' W 079°35'0 0.0
2018-Jun-24 18:30N 43°33' W 079°35'0 0.0
2018-Jun-24 17:59N 43°33' W 079°35'0 0.0
2018-Jun-24 17:30N 43°33' W 079°35'0 0.0
2018-Jun-24 17:00N 43°33' W 079°35'0 0.0
2018-Jun-24 16:29N 43°33' W 079°35'0 0.0
2018-Jun-24 16:00N 43°33' W 079°35'0 0.0
2018-Jun-24 15:30N 43°33' W 079°35'0 0.0
2018-Jun-24 14:55N 43°33' W 079°35'0 0.0
2018-Jun-24 14:29N 43°33' W 079°35'0 0.0
2018-Jun-24 14:00N 43°33' W 079°35'0 0.0
2018-Jun-24 13:28N 43°33' W 079°35'0 0.0
2018-Jun-24 13:00N 43°33' W 079°35'0 0.0
2018-Jun-24 12:27N 43°33' W 079°35'0 0.1
2018-Jun-24 11:59N 43°33' W 079°35'0 0.0
2018-Jun-24 11:29N 43°33' W 079°35'0 0.0
2018-Jun-24 10:58N 43°33' W 079°35'0 0.0
2018-Jun-24 10:30N 43°33' W 079°35'0 0.0
2018-Jun-24 10:00N 43°33' W 079°35'0 0.0
2018-Jun-24 09:30N 43°33' W 079°35'0 0.0
2018-Jun-24 08:59N 43°33' W 079°35'0 0.0
2018-Jun-24 08:30N 43°33' W 079°35'0 0.0
2018-Jun-24 07:58N 43°33' W 079°35'0 0.0
2018-Jun-24 07:29N 43°33' W 079°35'0 0.0
2018-Jun-24 06:58N 43°33' W 079°35'0 0.0
2018-Jun-24 06:30N 43°33' W 079°35'0 0.0
2018-Jun-24 05:59N 43°33' W 079°35'0 0.0
2018-Jun-24 05:29N 43°33' W 079°35'0 0.0
2018-Jun-24 05:00N 43°33' W 079°35'0 0.0
2018-Jun-24 04:30N 43°33' W 079°35'0 0.0
2018-Jun-24 03:57N 43°33' W 079°35'0 0.0
2018-Jun-24 03:25N 43°33' W 079°35'0 0.0
2018-Jun-24 03:00N 43°33' W 079°35'0 0.0
2018-Jun-24 02:29N 43°33' W 079°35'0 0.0
2018-Jun-24 01:59N 43°33' W 079°35'0 0.0
2018-Jun-24 01:27N 43°33' W 079°35'0 0.0
2018-Jun-24 01:00N 43°33' W 079°35'0 0.0
2018-Jun-24 00:30N 43°33' W 079°35'0 0.0
2018-Jun-24 00:00N 43°33' W 079°35'0 0.0
2018-Jun-23 23:30N 43°33' W 079°35'0 0.0
2018-Jun-23 22:59N 43°33' W 079°35'0 0.0
2018-Jun-23 22:29N 43°33' W 079°35'0 0.0
2018-Jun-23 22:00N 43°33' W 079°35'0 0.0
2018-Jun-23 21:28N 43°33' W 079°35'0 0.1
2018-Jun-23 21:00N 43°33' W 079°35'2 3.7
2018-Jun-23 20:30N 43°33' W 079°32'4 8.5
2018-Jun-23 20:00N 43°35' W 079°27'4 8.5
2018-Jun-23 19:30N 43°36' W 079°21'4 8.7
2018-Jun-23 19:00N 43°39' W 079°17'4 8.6
2018-Jun-23 18:30N 43°42' W 079°13'4 7.8
2018-Jun-23 18:00N 43°45' W 079°09'4 7.7
2018-Jun-23 17:30N 43°47' W 079°04'4 9.0
2018-Jun-23 17:00N 43°49' W 078°58'5 9.0
2018-Jun-23 16:30N 43°50' W 078°52'4 8.2
2018-Jun-23 16:00N 43°51' W 078°47'4 8.0
2018-Jun-23 15:30N 43°51' W 078°41'1 3.0
2018-Jun-23 15:00N 43°53' W 078°40'1 1.3
2018-Jun-23 14:27N 43°53' W 078°40'0 0.0
2018-Jun-23 13:59N 43°53' W 078°40'0 0.0
2018-Jun-23 13:28N 43°53' W 078°40'0 0.0
2018-Jun-23 12:58N 43°53' W 078°40'0 0.0
2018-Jun-23 12:27N 43°53' W 078°40'0 0.1
2018-Jun-23 12:00N 43°53' W 078°40'0 0.0
2018-Jun-23 11:28N 43°53' W 078°40'0 0.0
2018-Jun-23 11:00N 43°53' W 078°40'0 0.0
2018-Jun-23 10:28N 43°53' W 078°40'0 0.0
2018-Jun-23 10:00N 43°53' W 078°40'0 0.0
2018-Jun-23 09:29N 43°53' W 078°40'0 0.0
2018-Jun-23 08:58N 43°53' W 078°40'0 0.1
2018-Jun-23 08:28N 43°53' W 078°40'0 0.1
2018-Jun-23 08:00N 43°53' W 078°40'0 0.1
2018-Jun-23 07:29N 43°53' W 078°40'0 0.1
2018-Jun-23 06:58N 43°53' W 078°40'0 0.1
2018-Jun-23 06:30N 43°53' W 078°40'0 0.0
2018-Jun-23 06:00N 43°53' W 078°40'0 0.0
2018-Jun-23 05:29N 43°53' W 078°40'0 0.0
2018-Jun-23 04:58N 43°53' W 078°40'0 0.0
2018-Jun-23 04:29N 43°53' W 078°40'0 0.0
2018-Jun-23 03:58N 43°53' W 078°40'0 0.0
2018-Jun-23 03:29N 43°53' W 078°40'0 0.0
2018-Jun-23 02:58N 43°53' W 078°40'0 0.0
2018-Jun-23 02:29N 43°53' W 078°40'0 0.0
2018-Jun-23 01:58N 43°53' W 078°40'0 0.0
2018-Jun-23 01:28N 43°53' W 078°40'0 0.0
2018-Jun-23 00:58N 43°53' W 078°40'0 0.0
2018-Jun-23 00:28N 43°53' W 078°40'0 0.0
2018-Jun-23 00:00N 43°53' W 078°40'0 0.0
2018-Jun-22 23:30N 43°53' W 078°40'0 0.0
2018-Jun-22 22:58N 43°53' W 078°40'0 0.0
2018-Jun-22 22:29N 43°53' W 078°40'0 0.0
2018-Jun-22 22:00N 43°53' W 078°40'0 0.0
2018-Jun-22 21:30N 43°53' W 078°40'0 0.0
2018-Jun-22 21:00N 43°53' W 078°40'0 0.0
2018-Jun-22 20:26N 43°53' W 078°40'0 0.0
2018-Jun-22 19:58N 43°53' W 078°40'0 0.0
2018-Jun-22 19:29N 43°53' W 078°40'0 0.0
2018-Jun-22 18:59N 43°53' W 078°40'0 0.0
2018-Jun-22 18:30N 43°53' W 078°40'0 0.0
2018-Jun-22 17:59N 43°53' W 078°40'0 0.0
2018-Jun-22 17:30N 43°53' W 078°40'0 0.0
2018-Jun-22 17:00N 43°53' W 078°40'0 0.0
2018-Jun-22 16:29N 43°53' W 078°40'0 0.0
2018-Jun-22 15:59N 43°53' W 078°40'0 0.0
2018-Jun-22 15:28N 43°53' W 078°40'0 0.0
2018-Jun-22 14:57N 43°53' W 078°40'0 0.0
2018-Jun-22 14:28N 43°53' W 078°40'0 0.0
2018-Jun-22 13:59N 43°53' W 078°40'0 0.0
2018-Jun-22 13:29N 43°53' W 078°40'0 0.0
2018-Jun-22 13:00N 43°53' W 078°40'0 0.0
2018-Jun-22 12:29N 43°53' W 078°40'0 0.0
2018-Jun-22 11:58N 43°53' W 078°40'0 0.0
2018-Jun-22 11:27N 43°53' W 078°40'0 0.0
2018-Jun-22 11:00N 43°53' W 078°40'0 0.0
2018-Jun-22 10:28N 43°53' W 078°40'0 0.0
2018-Jun-22 10:00N 43°53' W 078°40'0 0.0
2018-Jun-22 09:29N 43°53' W 078°40'0 0.0
2018-Jun-22 09:00N 43°53' W 078°40'0 0.0
2018-Jun-22 08:30N 43°53' W 078°40'0 0.0
2018-Jun-22 07:59N 43°53' W 078°40'0 0.0
2018-Jun-22 07:30N 43°53' W 078°40'0 0.0
2018-Jun-22 06:58N 43°53' W 078°40'0 0.0
2018-Jun-22 06:28N 43°53' W 078°40'0 0.0
2018-Jun-22 06:00N 43°53' W 078°40'0 0.0
2018-Jun-22 05:30N 43°53' W 078°40'0 0.0
2018-Jun-22 04:57N 43°53' W 078°40'0 0.0
2018-Jun-22 04:27N 43°53' W 078°40'0 0.0
2018-Jun-22 03:58N 43°53' W 078°40'0 0.0
2018-Jun-22 03:30N 43°53' W 078°40'0 0.0
2018-Jun-22 02:58N 43°53' W 078°40'0 0.0
2018-Jun-22 02:29N 43°53' W 078°40'0 0.0
2018-Jun-22 01:58N 43°53' W 078°40'0 0.0
2018-Jun-22 01:28N 43°53' W 078°40'0 0.0
2018-Jun-22 00:59N 43°53' W 078°40'0 0.0
2018-Jun-22 00:30N 43°53' W 078°40'0 0.1
2018-Jun-21 23:58N 43°53' W 078°40'0 0.1
2018-Jun-21 23:30N 43°53' W 078°40'0 0.0
2018-Jun-21 22:58N 43°53' W 078°40'0 0.0
2018-Jun-21 22:29N 43°53' W 078°40'0 0.0
2018-Jun-21 21:58N 43°53' W 078°40'0 0.0
2018-Jun-21 21:30N 43°53' W 078°40'0 0.0
2018-Jun-21 20:58N 43°53' W 078°40'0 0.0
2018-Jun-21 20:28N 43°53' W 078°40'0 0.0
2018-Jun-21 19:59N 43°53' W 078°40'0 0.0
2018-Jun-21 19:30N 43°53' W 078°40'0 0.0
2018-Jun-21 18:58N 43°53' W 078°40'0 0.0
2018-Jun-21 18:29N 43°53' W 078°40'0 0.0
2018-Jun-21 17:58N 43°53' W 078°40'0 0.0
2018-Jun-21 17:29N 43°53' W 078°40'0 0.0
2018-Jun-21 17:00N 43°53' W 078°40'0 0.0
2018-Jun-21 16:28N 43°53' W 078°40'0 0.0
2018-Jun-21 15:59N 43°53' W 078°40'0 0.0
2018-Jun-21 15:31N 43°53' W 078°40'0 0.0
2018-Jun-21 14:59N 43°53' W 078°40'0 0.0
2018-Jun-21 14:29N 43°53' W 078°40'0 0.0
2018-Jun-21 14:00N 43°53' W 078°40'0 0.0
2018-Jun-21 13:28N 43°53' W 078°40'0 0.0
2018-Jun-21 12:59N 43°53' W 078°40'0 0.0
2018-Jun-21 12:29N 43°53' W 078°40'0 0.0
2018-Jun-21 12:00N 43°53' W 078°40'0 0.0
2018-Jun-21 11:28N 43°53' W 078°40'0 0.0
2018-Jun-21 10:59N 43°53' W 078°40'0 0.0
2018-Jun-21 10:30N 43°53' W 078°40'0 0.0
2018-Jun-21 10:00N 43°53' W 078°40'0 0.0
2018-Jun-21 09:29N 43°53' W 078°40'0 0.0
2018-Jun-21 09:01N 43°53' W 078°40'0 0.0
2018-Jun-21 08:30N 43°53' W 078°40'0 0.0
2018-Jun-21 07:58N 43°53' W 078°40'0 0.0
2018-Jun-21 07:28N 43°53' W 078°40'0 0.0
2018-Jun-21 06:57N 43°53' W 078°40'0 0.0
2018-Jun-21 06:27N 43°53' W 078°40'0 0.0
2018-Jun-21 05:57N 43°53' W 078°40'0 0.0
2018-Jun-21 05:29N 43°53' W 078°40'0 0.0
2018-Jun-21 04:57N 43°53' W 078°40'0 0.0
2018-Jun-21 04:30N 43°53' W 078°40'0 0.0
2018-Jun-21 03:58N 43°53' W 078°40'0 0.0
2018-Jun-21 03:28N 43°53' W 078°40'0 0.0
2018-Jun-21 02:58N 43°53' W 078°40'0 0.0
2018-Jun-21 02:28N 43°53' W 078°40'0 0.0
2018-Jun-21 01:58N 43°53' W 078°40'0 0.0
2018-Jun-21 01:28N 43°53' W 078°40'0 0.0
2018-Jun-21 00:57N 43°53' W 078°40'0 0.0
2018-Jun-21 00:30N 43°53' W 078°40'0 0.0
2018-Jun-20 23:59N 43°53' W 078°40'0 0.0
2018-Jun-20 23:30N 43°53' W 078°40'0 0.0
2018-Jun-20 22:58N 43°53' W 078°40'0 0.0
2018-Jun-20 22:30N 43°53' W 078°40'0 0.0
2018-Jun-20 21:59N 43°53' W 078°40'0 0.0
2018-Jun-20 21:30N 43°53' W 078°40'0 0.0
2018-Jun-20 20:59N 43°53' W 078°40'0 0.0
2018-Jun-20 20:29N 43°53' W 078°40'0 0.0
2018-Jun-20 19:58N 43°53' W 078°40'0 0.0
2018-Jun-20 19:29N 43°53' W 078°40'0 0.0
2018-Jun-20 18:58N 43°53' W 078°40'0 0.0
2018-Jun-20 18:29N 43°53' W 078°40'0 0.0
2018-Jun-20 17:58N 43°53' W 078°40'0 0.0
2018-Jun-20 17:27N 43°53' W 078°40'0 0.0
2018-Jun-20 16:58N 43°53' W 078°40'0 0.0
2018-Jun-20 16:29N 43°53' W 078°40'0 0.0
2018-Jun-20 15:57N 43°53' W 078°40'0 0.0
2018-Jun-20 15:29N 43°53' W 078°40'0 0.0
2018-Jun-20 15:00N 43°53' W 078°40'0 0.0
2018-Jun-20 14:30N 43°53' W 078°40'0 0.0
2018-Jun-20 14:00N 43°53' W 078°40'0 0.0
2018-Jun-20 13:30N 43°53' W 078°40'0 0.0
2018-Jun-20 13:00N 43°53' W 078°40'0 0.0
2018-Jun-20 12:26N 43°53' W 078°40'0 0.0
2018-Jun-20 12:00N 43°53' W 078°40'0 0.0
2018-Jun-20 11:28N 43°53' W 078°40'0 0.0
2018-Jun-20 10:58N 43°53' W 078°40'0 0.0
2018-Jun-20 10:30N 43°53' W 078°40'0 0.0
2018-Jun-20 09:58N 43°53' W 078°40'0 0.0
2018-Jun-20 09:29N 43°53' W 078°40'0 0.0
2018-Jun-20 09:00N 43°53' W 078°40'0 0.0
2018-Jun-20 08:30N 43°53' W 078°40'0 0.0
2018-Jun-20 07:57N 43°53' W 078°40'0 0.0
2018-Jun-20 07:28N 43°53' W 078°40'0 0.0
2018-Jun-20 07:00N 43°53' W 078°40'0 0.0
2018-Jun-20 06:30N 43°53' W 078°40'0 0.0
2018-Jun-20 06:01N 43°53' W 078°40'0 0.0
2018-Jun-20 05:28N 43°53' W 078°40'0 0.0
2018-Jun-20 04:59N 43°53' W 078°40'0 0.0
2018-Jun-20 04:30N 43°53' W 078°40'0 0.0
2018-Jun-20 03:58N 43°53' W 078°40'0 0.0
2018-Jun-20 03:30N 43°53' W 078°40'0 0.0
2018-Jun-20 02:58N 43°53' W 078°40'0 0.0
2018-Jun-20 02:28N 43°53' W 078°40'0 0.0
2018-Jun-20 01:59N 43°53' W 078°40'0 0.0
2018-Jun-20 01:28N 43°53' W 078°40'0 0.0
2018-Jun-20 00:59N 43°53' W 078°40'0 0.0
2018-Jun-20 00:30N 43°53' W 078°40'0 0.0
2018-Jun-19 23:57N 43°53' W 078°40'0 0.0
2018-Jun-19 23:29N 43°53' W 078°40'0 0.0
2018-Jun-19 22:58N 43°53' W 078°40'0 0.0
2018-Jun-19 22:28N 43°53' W 078°40'0 0.0
2018-Jun-19 21:58N 43°53' W 078°40'0 0.0
2018-Jun-19 21:30N 43°53' W 078°40'0 0.0
2018-Jun-19 21:00N 43°53' W 078°40'0 0.0
2018-Jun-19 20:30N 43°53' W 078°40'0 0.0
2018-Jun-19 19:58N 43°53' W 078°40'0 0.0
2018-Jun-19 19:29N 43°53' W 078°40'0 0.0
2018-Jun-19 19:00N 43°53' W 078°40'0 0.0
2018-Jun-19 18:27N 43°53' W 078°40'0 0.0
2018-Jun-19 17:59N 43°53' W 078°40'0 0.0
2018-Jun-19 17:28N 43°53' W 078°40'0 0.0
2018-Jun-19 16:58N 43°53' W 078°40'0 0.0
2018-Jun-19 16:30N 43°53' W 078°40'0 0.0
2018-Jun-19 15:58N 43°53' W 078°40'0 0.0
2018-Jun-19 15:30N 43°53' W 078°40'0 0.0
2018-Jun-19 14:57N 43°53' W 078°40'0 0.0
2018-Jun-19 14:28N 43°53' W 078°40'0 0.0
2018-Jun-19 13:59N 43°53' W 078°40'0 0.0
2018-Jun-19 13:30N 43°53' W 078°40'0 0.0
2018-Jun-19 13:00N 43°53' W 078°40'0 0.0
2018-Jun-19 12:29N 43°53' W 078°40'0 0.0
2018-Jun-19 11:59N 43°53' W 078°40'0 0.0
2018-Jun-19 11:27N 43°53' W 078°40'0 0.0
2018-Jun-19 10:58N 43°53' W 078°40'0 0.0
2018-Jun-19 10:29N 43°53' W 078°40'0 0.0
2018-Jun-19 09:59N 43°53' W 078°40'0 0.0
2018-Jun-19 09:28N 43°53' W 078°40'0 0.0
2018-Jun-19 09:00N 43°53' W 078°40'0 0.0
2018-Jun-19 08:30N 43°53' W 078°40'0 0.0
2018-Jun-19 07:58N 43°53' W 078°40'0 0.0
2018-Jun-19 07:27N 43°53' W 078°40'0 0.0
2018-Jun-19 07:00N 43°53' W 078°40'0 0.0
2018-Jun-19 06:29N 43°53' W 078°40'0 0.0
2018-Jun-19 05:59N 43°53' W 078°40'0 0.0
2018-Jun-19 05:29N 43°53' W 078°40'0 0.0
2018-Jun-19 05:00N 43°53' W 078°40'0 0.0
2018-Jun-19 04:30N 43°53' W 078°40'0 0.0
2018-Jun-19 03:59N 43°53' W 078°40'0 0.0
2018-Jun-19 03:27N 43°53' W 078°40'0 0.0
2018-Jun-19 02:58N 43°53' W 078°40'0 0.0
2018-Jun-19 02:28N 43°53' W 078°40'0 0.0
2018-Jun-19 01:59N 43°53' W 078°40'0 0.0
2018-Jun-19 01:30N 43°53' W 078°40'0 0.0
2018-Jun-19 00:59N 43°53' W 078°40'0 0.0
2018-Jun-19 00:29N 43°53' W 078°40'0 0.0
2018-Jun-19 00:00N 43°53' W 078°40'0 0.0
2018-Jun-18 23:27N 43°53' W 078°40'0 0.0
2018-Jun-18 22:58N 43°53' W 078°40'0 0.0
2018-Jun-18 22:30N 43°53' W 078°40'0 0.0
2018-Jun-18 21:59N 43°53' W 078°40'0 0.0
2018-Jun-18 21:28N 43°53' W 078°40'0 0.0
2018-Jun-18 21:00N 43°53' W 078°40'0 0.0
2018-Jun-18 20:30N 43°53' W 078°40'0 0.0
2018-Jun-18 20:00N 43°53' W 078°40'0 0.0
2018-Jun-18 19:29N 43°53' W 078°40'0 0.0
2018-Jun-18 18:57N 43°53' W 078°40'0 0.0
2018-Jun-18 18:30N 43°53' W 078°40'0 0.0
2018-Jun-18 17:59N 43°53' W 078°40'0 0.0
2018-Jun-18 17:28N 43°53' W 078°40'0 0.0
2018-Jun-18 16:58N 43°53' W 078°40'0 0.0
2018-Jun-18 16:29N 43°53' W 078°40'0 0.0
2018-Jun-18 15:59N 43°53' W 078°40'0 0.0
2018-Jun-18 15:29N 43°53' W 078°40'0 0.0
2018-Jun-18 15:00N 43°53' W 078°40'0 0.0
2018-Jun-18 14:30N 43°53' W 078°40'0 0.0
2018-Jun-18 14:00N 43°53' W 078°40'0 0.0
2018-Jun-18 13:26N 43°53' W 078°40'0 0.0
2018-Jun-18 12:58N 43°53' W 078°40'0 0.0
2018-Jun-18 12:28N 43°53' W 078°40'0 0.0
2018-Jun-18 12:00N 43°53' W 078°40'0 0.0
2018-Jun-18 11:24N 43°53' W 078°40'0 0.0
2018-Jun-18 11:00N 43°53' W 078°40'0 0.0
2018-Jun-18 10:28N 43°53' W 078°40'0 0.0
2018-Jun-18 09:58N 43°53' W 078°40'0 0.0
2018-Jun-18 09:29N 43°53' W 078°40'0 0.0
2018-Jun-18 09:00N 43°53' W 078°40'0 0.0
2018-Jun-18 08:30N 43°53' W 078°40'0 0.0
2018-Jun-18 08:00N 43°53' W 078°40'0 0.0
2018-Jun-18 07:30N 43°53' W 078°40'0 0.0
2018-Jun-18 06:58N 43°53' W 078°40'0 0.0
2018-Jun-18 06:28N 43°53' W 078°40'0 0.0
2018-Jun-18 05:59N 43°53' W 078°40'0 0.0
2018-Jun-18 05:28N 43°53' W 078°40'0 0.0
2018-Jun-18 04:58N 43°53' W 078°40'0 0.0
2018-Jun-18 04:30N 43°53' W 078°40'0 0.0
2018-Jun-18 03:58N 43°53' W 078°40'0 0.0
2018-Jun-18 03:28N 43°53' W 078°40'0 0.0
2018-Jun-18 03:00N 43°53' W 078°40'0 0.0
2018-Jun-18 02:29N 43°53' W 078°40'0 0.0
2018-Jun-18 01:58N 43°53' W 078°40'0 0.0
2018-Jun-18 01:29N 43°53' W 078°40'0 0.0
2018-Jun-18 00:58N 43°53' W 078°40'0 0.0
2018-Jun-18 00:30N 43°53' W 078°40'0 0.0
2018-Jun-17 23:58N 43°53' W 078°40'0 0.0
2018-Jun-17 23:30N 43°53' W 078°40'0 0.0
2018-Jun-17 22:58N 43°53' W 078°40'0 0.0
2018-Jun-17 22:29N 43°53' W 078°40'0 0.0
2018-Jun-17 21:59N 43°53' W 078°40'0 0.0
2018-Jun-17 21:30N 43°53' W 078°40'0 0.0
2018-Jun-17 20:58N 43°53' W 078°40'0 0.0
2018-Jun-17 20:28N 43°53' W 078°40'0 0.0
2018-Jun-17 19:59N 43°53' W 078°40'0 0.0
2018-Jun-17 19:30N 43°53' W 078°40'0 0.0
2018-Jun-17 18:58N 43°53' W 078°40'0 0.0
2018-Jun-17 18:28N 43°53' W 078°40'0 0.1
2018-Jun-17 17:58N 43°53' W 078°40'0 0.0
2018-Jun-17 17:29N 43°53' W 078°40'0 0.0
2018-Jun-17 16:58N 43°53' W 078°40'0 0.1
2018-Jun-17 16:28N 43°53' W 078°40'0 0.1
2018-Jun-17 15:59N 43°53' W 078°40'0 0.0
2018-Jun-17 15:28N 43°53' W 078°40'0 0.0
2018-Jun-17 14:58N 43°53' W 078°40'0 0.0
2018-Jun-17 14:28N 43°53' W 078°40'0 0.0
2018-Jun-17 14:00N 43°53' W 078°40'0 0.0
2018-Jun-17 13:30N 43°53' W 078°40'0 0.0
2018-Jun-17 12:58N 43°53' W 078°40'0 0.0
2018-Jun-17 12:29N 43°53' W 078°40'0 0.0
2018-Jun-17 11:59N 43°53' W 078°40'0 0.0
2018-Jun-17 11:30N 43°53' W 078°40'0 0.0
2018-Jun-17 11:00N 43°53' W 078°40'0 0.0
2018-Jun-17 10:27N 43°53' W 078°40'0 0.0
2018-Jun-17 09:59N 43°53' W 078°40'0 0.0
2018-Jun-17 09:30N 43°53' W 078°40'0 0.0
2018-Jun-17 08:58N 43°53' W 078°40'0 0.0
2018-Jun-17 08:29N 43°53' W 078°40'0 0.0
2018-Jun-17 08:00N 43°53' W 078°40'0 0.0
2018-Jun-17 07:26N 43°53' W 078°40'0 0.0
2018-Jun-17 06:57N 43°53' W 078°40'0 0.0
2018-Jun-17 06:30N 43°53' W 078°40'0 0.0
2018-Jun-17 05:58N 43°53' W 078°40'0 0.0
2018-Jun-17 05:28N 43°53' W 078°40'0 0.0
2018-Jun-17 04:58N 43°53' W 078°40'0 0.0
2018-Jun-17 04:30N 43°53' W 078°40'0 0.0
2018-Jun-17 03:59N 43°53' W 078°40'0 0.0
2018-Jun-17 03:28N 43°53' W 078°40'0 0.0
2018-Jun-17 03:00N 43°53' W 078°40'0 0.0
2018-Jun-17 02:30N 43°53' W 078°40'0 0.0
2018-Jun-17 01:59N 43°53' W 078°40'0 0.0
2018-Jun-17 01:28N 43°53' W 078°40'0 0.0
2018-Jun-17 00:58N 43°53' W 078°40'0 0.0
2018-Jun-17 00:30N 43°53' W 078°40'0 0.0
2018-Jun-17 00:00N 43°53' W 078°40'0 0.0
2018-Jun-16 23:30N 43°53' W 078°40'0 0.0
2018-Jun-16 22:59N 43°53' W 078°40'0 0.0
2018-Jun-16 22:30N 43°53' W 078°40'0 0.0
2018-Jun-16 21:58N 43°53' W 078°40'0 0.0
2018-Jun-16 21:31N 43°53' W 078°40'0 0.0
2018-Jun-16 20:59N 43°53' W 078°40'0 0.0
2018-Jun-16 20:29N 43°53' W 078°40'0 0.0
2018-Jun-16 20:00N 43°53' W 078°40'0 0.0
2018-Jun-16 19:30N 43°53' W 078°40'0 0.0
2018-Jun-16 19:00N 43°53' W 078°40'0 0.0
2018-Jun-16 18:30N 43°53' W 078°40'0 0.0
2018-Jun-16 17:58N 43°53' W 078°40'0 0.0
2018-Jun-16 17:30N 43°53' W 078°40'0 0.0
2018-Jun-16 16:58N 43°53' W 078°40'0 0.0
2018-Jun-16 16:28N 43°53' W 078°40'2 3.5
2018-Jun-16 16:00N 43°52' W 078°41'4 7.9
2018-Jun-16 15:30N 43°50' W 078°46'7 8.0
2018-Jun-16 14:35N 43°47' W 078°55'8 8.1
2018-Jun-16 13:34N 43°43' W 079°05'1 6.7
2018-Jun-16 13:29N 43°42' W 079°06'4 8.3
2018-Jun-16 13:00N 43°40' W 079°10'4 8.0
2018-Jun-16 12:30N 43°39' W 079°15'4 8.4
2018-Jun-16 12:00N 43°36' W 079°20'4 7.7
2018-Jun-16 11:30N 43°35' W 079°25'4 8.1
2018-Jun-16 11:00N 43°34' W 079°31'3 6.3
2018-Jun-16 10:30N 43°33' W 079°35'0 0.1
2018-Jun-16 09:59N 43°33' W 079°35'0 0.0
2018-Jun-16 09:30N 43°33' W 079°35'0 0.0
2018-Jun-16 08:59N 43°33' W 079°35'0 0.0
2018-Jun-16 08:28N 43°33' W 079°35'0 0.0
2018-Jun-16 07:59N 43°33' W 079°35'0 0.0
2018-Jun-16 07:30N 43°33' W 079°35'0 0.0
2018-Jun-16 06:59N 43°33' W 079°35'0 0.0
2018-Jun-16 06:29N 43°33' W 079°35'0 0.0
2018-Jun-16 05:58N 43°33' W 079°35'0 0.0
2018-Jun-16 05:29N 43°33' W 079°35'0 0.0
2018-Jun-16 04:59N 43°33' W 079°35'0 0.0
2018-Jun-16 04:29N 43°33' W 079°35'0 0.0
2018-Jun-16 04:00N 43°33' W 079°35'0 0.0
2018-Jun-16 03:30N 43°33' W 079°35'0 0.0
2018-Jun-16 02:57N 43°33' W 079°35'0 0.0
2018-Jun-16 02:30N 43°33' W 079°35'0 0.0
2018-Jun-16 02:00N 43°33' W 079°35'0 0.0
2018-Jun-16 01:30N 43°33' W 079°35'0 0.0
2018-Jun-16 01:00N 43°33' W 079°35'0 0.0
2018-Jun-16 00:28N 43°33' W 079°35'0 0.0
2018-Jun-15 23:59N 43°33' W 079°35'0 0.0
2018-Jun-15 23:30N 43°33' W 079°35'0 0.0
2018-Jun-15 22:59N 43°33' W 079°35'0 0.0
2018-Jun-15 22:28N 43°33' W 079°35'0 0.0
2018-Jun-15 22:00N 43°33' W 079°35'0 0.0
2018-Jun-15 21:30N 43°33' W 079°35'0 0.0
2018-Jun-15 20:59N 43°33' W 079°35'0 0.0
2018-Jun-15 20:30N 43°33' W 079°35'0 0.0
2018-Jun-15 20:00N 43°33' W 079°35'0 0.0
2018-Jun-15 19:30N 43°33' W 079°35'0 0.0
2018-Jun-15 19:00N 43°33' W 079°35'0 0.0
2018-Jun-15 18:30N 43°33' W 079°35'0 0.0
2018-Jun-15 17:59N 43°33' W 079°35'0 0.0
2018-Jun-15 17:29N 43°33' W 079°35'0 0.0
2018-Jun-15 17:00N 43°33' W 079°35'0 0.0
2018-Jun-15 16:29N 43°33' W 079°35'0 0.0
2018-Jun-15 16:00N 43°33' W 079°35'0 0.0
2018-Jun-15 15:29N 43°33' W 079°35'0 0.0
2018-Jun-15 15:00N 43°33' W 079°35'0 0.0
2018-Jun-15 14:29N 43°33' W 079°35'0 0.0
2018-Jun-15 13:58N 43°33' W 079°35'0 0.0
2018-Jun-15 13:28N 43°33' W 079°35'0 0.0
2018-Jun-15 13:00N 43°33' W 079°35'0 0.0
2018-Jun-15 12:27N 43°33' W 079°35'0 0.0
2018-Jun-15 11:57N 43°33' W 079°35'0 0.0
2018-Jun-15 11:30N 43°33' W 079°35'0 0.0
2018-Jun-15 10:59N 43°33' W 079°35'0 0.0
2018-Jun-15 10:29N 43°33' W 079°35'0 0.0
2018-Jun-15 09:59N 43°33' W 079°35'0 0.0
2018-Jun-15 09:29N 43°33' W 079°35'0 0.0
2018-Jun-15 09:00N 43°33' W 079°35'0 0.0
2018-Jun-15 08:31N 43°33' W 079°35'0 0.0
2018-Jun-15 07:58N 43°33' W 079°35'0 0.0
2018-Jun-15 07:29N 43°33' W 079°35'0 0.0
2018-Jun-15 06:59N 43°33' W 079°35'0 0.0
2018-Jun-15 06:24N 43°33' W 079°35'0 0.0
2018-Jun-15 05:59N 43°33' W 079°35'0 0.0
2018-Jun-15 05:29N 43°33' W 079°35'0 0.0
2018-Jun-15 04:57N 43°33' W 079°35'0 0.0
2018-Jun-15 04:30N 43°33' W 079°35'0 0.0
2018-Jun-15 04:00N 43°33' W 079°35'0 0.0
2018-Jun-15 03:30N 43°33' W 079°35'0 0.0
2018-Jun-15 02:59N 43°33' W 079°35'0 0.0
2018-Jun-15 02:28N 43°33' W 079°35'0 0.0
2018-Jun-15 01:59N 43°33' W 079°35'0 0.0
2018-Jun-15 01:28N 43°33' W 079°35'0 0.0
2018-Jun-15 01:00N 43°33' W 079°35'0 0.0
2018-Jun-15 00:30N 43°33' W 079°35'0 0.0
2018-Jun-14 23:59N 43°33' W 079°35'  

Dump ship's entire track history